sensor_id;sensor_type;location;lat;lon;timestamp;temperature;humidity
2967;DHT22;1493;51.496;7.210;2023-04-25T00:01:31;7.40;92.80
2967;DHT22;1493;51.496;7.210;2023-04-25T00:04:00;7.50;59.30
2967;DHT22;1493;51.496;7.210;2023-04-25T00:06:29;7.60;42.50
2967;DHT22;1493;51.496;7.210;2023-04-25T00:08:57;7.70;20.80
2967;DHT22;1493;51.496;7.210;2023-04-25T00:11:24;7.70;1.00
2967;DHT22;1493;51.496;7.210;2023-04-25T00:13:51;7.80;1.00
2967;DHT22;1493;51.496;7.210;2023-04-25T00:16:18;7.80;4.90
2967;DHT22;1493;51.496;7.210;2023-04-25T00:18:44;7.80;1.00
2967;DHT22;1493;51.496;7.210;2023-04-25T00:21:17;7.80;17.50
2967;DHT22;1493;51.496;7.210;2023-04-25T00:23:45;7.90;28.90
2967;DHT22;1493;51.496;7.210;2023-04-25T00:26:12;7.90;27.30
2967;DHT22;1493;51.496;7.210;2023-04-25T00:28:39;8.00;15.80
2967;DHT22;1493;51.496;7.210;2023-04-25T00:31:06;8.00;1.00
2967;DHT22;1493;51.496;7.210;2023-04-25T00:33:33;8.00;2.50
2967;DHT22;1493;51.496;7.210;2023-04-25T00:36:00;8.00;1.00
2967;DHT22;1493;51.496;7.210;2023-04-25T00:38:27;7.90;5.70
2967;DHT22;1493;51.496;7.210;2023-04-25T00:40:55;7.90;22.10
2967;DHT22;1493;51.496;7.210;2023-04-25T00:43:23;8.00;19.40
2967;DHT22;1493;51.496;7.210;2023-04-25T00:45:52;8.00;18.30
2967;DHT22;1493;51.496;7.210;2023-04-25T00:48:22;8.00;22.10
2967;DHT22;1493;51.496;7.210;2023-04-25T00:50:51;8.00;32.20
2967;DHT22;1493;51.496;7.210;2023-04-25T00:53:19;8.00;32.10
2967;DHT22;1493;51.496;7.210;2023-04-25T00:55:46;8.00;26.70
2967;DHT22;1493;51.496;7.210;2023-04-25T00:58:14;8.00;22.70
2967;DHT22;1493;51.496;7.210;2023-04-25T01:00:42;8.10;42.90
2967;DHT22;1493;51.496;7.210;2023-04-25T01:03:09;8.10;52.80
2967;DHT22;1493;51.496;7.210;2023-04-25T01:05:36;8.10;31.40
2967;DHT22;1493;51.496;7.210;2023-04-25T01:08:02;8.10;52.60
2967;DHT22;1493;51.496;7.210;2023-04-25T01:10:29;8.10;57.90
2967;DHT22;1493;51.496;7.210;2023-04-25T01:12:56;8.00;99.90
2967;DHT22;1493;51.496;7.210;2023-04-25T01:15:24;8.00;99.90
2967;DHT22;1493;51.496;7.210;2023-04-25T01:17:51;7.80;99.90
2967;DHT22;1493;51.496;7.210;2023-04-25T01:20:19;7.90;99.90
2967;DHT22;1493;51.496;7.210;2023-04-25T01:22:49;7.90;99.90
2967;DHT22;1493;51.496;7.210;2023-04-25T01:25:16;7.90;99.90
2967;DHT22;1493;51.496;7.210;2023-04-25T01:27:44;7.90;99.90
2967;DHT22;1493;51.496;7.210;2023-04-25T01:30:11;7.80;99.90
2967;DHT22;1493;51.496;7.210;2023-04-25T01:32:38;7.70;99.90
2967;DHT22;1493;51.496;7.210;2023-04-25T01:35:07;7.70;99.90
2967;DHT22;1493;51.496;7.210;2023-04-25T01:37:35;7.70;99.90
2967;DHT22;1493;51.496;7.210;2023-04-25T01:40:04;7.70;99.90
2967;DHT22;1493;51.496;7.210;2023-04-25T01:42:31;7.70;99.90
2967;DHT22;1493;51.496;7.210;2023-04-25T01:44:58;7.60;99.90
2967;DHT22;1493;51.496;7.210;2023-04-25T01:47:25;7.70;99.90
2967;DHT22;1493;51.496;7.210;2023-04-25T01:49:52;7.70;99.90
2967;DHT22;1493;51.496;7.210;2023-04-25T01:52:19;7.70;99.90
2967;DHT22;1493;51.496;7.210;2023-04-25T01:54:46;7.60;99.90
2967;DHT22;1493;51.496;7.210;2023-04-25T01:57:14;7.70;99.90
2967;DHT22;1493;51.496;7.210;2023-04-25T01:59:42;7.70;99.90
2967;DHT22;1493;51.496;7.210;2023-04-25T02:02:09;7.70;99.90
2967;DHT22;1493;51.496;7.210;2023-04-25T02:04:36;7.70;99.90
2967;DHT22;1493;51.496;7.210;2023-04-25T02:07:03;7.70;99.90
2967;DHT22;1493;51.496;7.210;2023-04-25T02:09:30;7.80;99.90
2967;DHT22;1493;51.496;7.210;2023-04-25T02:11:57;7.80;99.90
2967;DHT22;1493;51.496;7.210;2023-04-25T02:14:26;7.80;99.90
2967;DHT22;1493;51.496;7.210;2023-04-25T02:16:54;7.80;99.90
2967;DHT22;1493;51.496;7.210;2023-04-25T02:19:21;7.80;99.90
2967;DHT22;1493;51.496;7.210;2023-04-25T02:21:47;7.70;99.90
2967;DHT22;1493;51.496;7.210;2023-04-25T02:24:14;7.70;99.90
2967;DHT22;1493;51.496;7.210;2023-04-25T02:26:41;7.80;99.90
2967;DHT22;1493;51.496;7.210;2023-04-25T02:29:08;7.80;99.90
2967;DHT22;1493;51.496;7.210;2023-04-25T02:31:36;7.80;99.90
2967;DHT22;1493;51.496;7.210;2023-04-25T02:34:03;7.50;99.90
2967;DHT22;1493;51.496;7.210;2023-04-25T02:36:30;7.50;99.90
2967;DHT22;1493;51.496;7.210;2023-04-25T02:38:59;7.60;99.90
2967;DHT22;1493;51.496;7.210;2023-04-25T02:41:26;7.50;99.90
2967;DHT22;1493;51.496;7.210;2023-04-25T02:43:53;7.50;99.90
2967;DHT22;1493;51.496;7.210;2023-04-25T02:46:20;7.50;99.90
2967;DHT22;1493;51.496;7.210;2023-04-25T02:48:48;7.50;99.90
2967;DHT22;1493;51.496;7.210;2023-04-25T02:51:15;7.50;99.90
2967;DHT22;1493;51.496;7.210;2023-04-25T02:53:42;7.50;99.90
2967;DHT22;1493;51.496;7.210;2023-04-25T02:56:09;7.50;99.90
2967;DHT22;1493;51.496;7.210;2023-04-25T02:58:36;7.50;99.90
2967;DHT22;1493;51.496;7.210;2023-04-25T03:01:03;7.40;99.90
2967;DHT22;1493;51.496;7.210;2023-04-25T03:03:29;7.40;99.90
2967;DHT22;1493;51.496;7.210;2023-04-25T03:05:57;7.40;99.90
2967;DHT22;1493;51.496;7.210;2023-04-25T03:08:24;7.40;99.90
2967;DHT22;1493;51.496;7.210;2023-04-25T03:10:54;7.40;99.90
2967;DHT22;1493;51.496;7.210;2023-04-25T03:13:22;7.30;99.90
2967;DHT22;1493;51.496;7.210;2023-04-25T03:15:49;7.30;99.90
2967;DHT22;1493;51.496;7.210;2023-04-25T03:18:16;7.30;99.90
2967;DHT22;1493;51.496;7.210;2023-04-25T03:20:43;7.30;99.90
2967;DHT22;1493;51.496;7.210;2023-04-25T03:23:11;7.30;99.90
2967;DHT22;1493;51.496;7.210;2023-04-25T03:25:38;7.30;99.90
2967;DHT22;1493;51.496;7.210;2023-04-25T03:28:05;7.30;99.90
2967;DHT22;1493;51.496;7.210;2023-04-25T03:30:31;7.30;99.90
2967;DHT22;1493;51.496;7.210;2023-04-25T03:32:58;7.30;99.90
2967;DHT22;1493;51.496;7.210;2023-04-25T03:35:25;7.40;99.90
2967;DHT22;1493;51.496;7.210;2023-04-25T03:37:52;7.30;99.90
2967;DHT22;1493;51.496;7.210;2023-04-25T03:40:20;7.30;99.90
2967;DHT22;1493;51.496;7.210;2023-04-25T03:42:47;7.30;99.90
2967;DHT22;1493;51.496;7.210;2023-04-25T03:45:13;7.30;99.90
2967;DHT22;1493;51.496;7.210;2023-04-25T03:47:40;7.30;99.90
2967;DHT22;1493;51.496;7.210;2023-04-25T03:50:08;7.40;99.90
2967;DHT22;1493;51.496;7.210;2023-04-25T03:52:35;7.40;99.90
2967;DHT22;1493;51.496;7.210;2023-04-25T03:55:01;7.40;99.90
2967;DHT22;1493;51.496;7.210;2023-04-25T03:57:31;7.40;99.90
2967;DHT22;1493;51.496;7.210;2023-04-25T03:59:58;7.30;99.90
2967;DHT22;1493;51.496;7.210;2023-04-25T04:02:25;7.30;99.90
2967;DHT22;1493;51.496;7.210;2023-04-25T04:04:51;7.40;99.90
2967;DHT22;1493;51.496;7.210;2023-04-25T04:07:18;7.40;99.90
2967;DHT22;1493;51.496;7.210;2023-04-25T04:09:45;7.20;99.90
2967;DHT22;1493;51.496;7.210;2023-04-25T04:12:12;7.00;99.90
2967;DHT22;1493;51.496;7.210;2023-04-25T04:14:40;6.70;99.90
2967;DHT22;1493;51.496;7.210;2023-04-25T04:17:07;6.50;99.90
2967;DHT22;1493;51.496;7.210;2023-04-25T04:19:34;6.50;99.90
2967;DHT22;1493;51.496;7.210;2023-04-25T04:22:00;6.30;99.90
2967;DHT22;1493;51.496;7.210;2023-04-25T04:24:27;6.30;99.90
2967;DHT22;1493;51.496;7.210;2023-04-25T04:26:54;6.40;99.90
2967;DHT22;1493;51.496;7.210;2023-04-25T04:29:22;6.40;99.90
2967;DHT22;1493;51.496;7.210;2023-04-25T04:31:50;6.50;99.90
2967;DHT22;1493;51.496;7.210;2023-04-25T04:34:18;6.50;99.90
2967;DHT22;1493;51.496;7.210;2023-04-25T04:36:45;6.50;99.90
2967;DHT22;1493;51.496;7.210;2023-04-25T04:39:12;6.60;99.90
2967;DHT22;1493;51.496;7.210;2023-04-25T04:41:39;6.50;99.90
2967;DHT22;1493;51.496;7.210;2023-04-25T04:44:06;6.50;99.90
2967;DHT22;1493;51.496;7.210;2023-04-25T04:46:34;6.60;99.90
2967;DHT22;1493;51.496;7.210;2023-04-25T04:49:05;6.60;99.90
2967;DHT22;1493;51.496;7.210;2023-04-25T04:51:32;6.60;99.90
2967;DHT22;1493;51.496;7.210;2023-04-25T04:53:58;6.60;99.90
2967;DHT22;1493;51.496;7.210;2023-04-25T04:56:27;6.70;99.90
2967;DHT22;1493;51.496;7.210;2023-04-25T04:58:54;6.70;99.90
2967;DHT22;1493;51.496;7.210;2023-04-25T05:01:21;6.70;99.90
2967;DHT22;1493;51.496;7.210;2023-04-25T05:03:48;6.70;99.90
2967;DHT22;1493;51.496;7.210;2023-04-25T05:06:17;6.80;99.90
2967;DHT22;1493;51.496;7.210;2023-04-25T05:08:44;6.80;99.90
2967;DHT22;1493;51.496;7.210;2023-04-25T05:11:11;6.90;99.90
2967;DHT22;1493;51.496;7.210;2023-04-25T05:13:37;6.90;99.90
2967;DHT22;1493;51.496;7.210;2023-04-25T05:16:05;6.90;99.90
2967;DHT22;1493;51.496;7.210;2023-04-25T05:18:31;7.00;99.90
2967;DHT22;1493;51.496;7.210;2023-04-25T05:20:58;7.00;99.90
2967;DHT22;1493;51.496;7.210;2023-04-25T05:23:26;7.00;99.90
2967;DHT22;1493;51.496;7.210;2023-04-25T05:25:55;7.10;99.90
2967;DHT22;1493;51.496;7.210;2023-04-25T05:28:22;7.20;99.90
2967;DHT22;1493;51.496;7.210;2023-04-25T05:30:49;7.30;99.90
2967;DHT22;1493;51.496;7.210;2023-04-25T05:33:16;7.40;93.60
2967;DHT22;1493;51.496;7.210;2023-04-25T05:35:43;7.40;96.10
2967;DHT22;1493;51.496;7.210;2023-04-25T05:38:10;7.50;91.70
2967;DHT22;1493;51.496;7.210;2023-04-25T05:40:38;7.60;99.90
2967;DHT22;1493;51.496;7.210;2023-04-25T05:43:05;7.70;99.90
2967;DHT22;1493;51.496;7.210;2023-04-25T05:45:32;7.80;94.90
2967;DHT22;1493;51.496;7.210;2023-04-25T05:47:59;7.80;95.00
2967;DHT22;1493;51.496;7.210;2023-04-25T05:50:26;7.80;93.10
2967;DHT22;1493;51.496;7.210;2023-04-25T05:52:53;7.90;99.90
2967;DHT22;1493;51.496;7.210;2023-04-25T05:55:20;8.00;95.20
2967;DHT22;1493;51.496;7.210;2023-04-25T05:57:48;8.10;97.00
2967;DHT22;1493;51.496;7.210;2023-04-25T06:00:15;8.30;84.80
2967;DHT22;1493;51.496;7.210;2023-04-25T06:02:42;8.40;97.10
2967;DHT22;1493;51.496;7.210;2023-04-25T06:05:09;8.50;81.80
2967;DHT22;1493;51.496;7.210;2023-04-25T06:07:36;8.60;43.40
2967;DHT22;1493;51.496;7.210;2023-04-25T06:10:03;8.70;14.10
2967;DHT22;1493;51.496;7.210;2023-04-25T06:12:31;8.80;7.90
2967;DHT22;1493;51.496;7.210;2023-04-25T06:15:00;8.90;35.30
2967;DHT22;1493;51.496;7.210;2023-04-25T06:17:26;8.90;24.90
2967;DHT22;1493;51.496;7.210;2023-04-25T06:19:53;8.90;24.30
2967;DHT22;1493;51.496;7.210;2023-04-25T06:22:20;9.00;1.00
2967;DHT22;1493;51.496;7.210;2023-04-25T06:24:47;8.90;1.00
2967;DHT22;1493;51.496;7.210;2023-04-25T06:27:14;8.80;1.00
2967;DHT22;1493;51.496;7.210;2023-04-25T06:29:40;8.60;1.00
2967;DHT22;1493;51.496;7.210;2023-04-25T06:32:09;8.60;1.00
2967;DHT22;1493;51.496;7.210;2023-04-25T06:34:37;8.50;1.00
2967;DHT22;1493;51.496;7.210;2023-04-25T06:37:04;8.50;19.20
2967;DHT22;1493;51.496;7.210;2023-04-25T06:39:31;8.70;1.00
2967;DHT22;1493;51.496;7.210;2023-04-25T06:41:57;9.10;1.00
2967;DHT22;1493;51.496;7.210;2023-04-25T06:44:24;9.30;1.00
2967;DHT22;1493;51.496;7.210;2023-04-25T06:46:51;9.40;1.00
2967;DHT22;1493;51.496;7.210;2023-04-25T06:49:19;9.60;1.00
2967;DHT22;1493;51.496;7.210;2023-04-25T06:51:46;9.80;1.00
2967;DHT22;1493;51.496;7.210;2023-04-25T06:54:13;10.00;1.00
2967;DHT22;1493;51.496;7.210;2023-04-25T06:56:40;10.10;99.90
2967;DHT22;1493;51.496;7.210;2023-04-25T06:59:07;10.00;99.90
2967;DHT22;1493;51.496;7.210;2023-04-25T07:01:34;10.00;99.90
2967;DHT22;1493;51.496;7.210;2023-04-25T07:04:01;9.90;99.90
2967;DHT22;1493;51.496;7.210;2023-04-25T07:06:30;9.70;99.90
2967;DHT22;1493;51.496;7.210;2023-04-25T07:08:56;9.60;1.00
2967;DHT22;1493;51.496;7.210;2023-04-25T07:11:23;9.50;1.00
2967;DHT22;1493;51.496;7.210;2023-04-25T07:13:50;9.50;1.00
2967;DHT22;1493;51.496;7.210;2023-04-25T07:16:17;9.30;1.00
2967;DHT22;1493;51.496;7.210;2023-04-25T07:18:44;9.40;1.00
2967;DHT22;1493;51.496;7.210;2023-04-25T07:21:11;9.50;1.00
2967;DHT22;1493;51.496;7.210;2023-04-25T07:23:39;9.90;99.90
2967;DHT22;1493;51.496;7.210;2023-04-25T07:26:06;9.90;99.90
2967;DHT22;1493;51.496;7.210;2023-04-25T07:28:33;10.20;1.00
2967;DHT22;1493;51.496;7.210;2023-04-25T07:31:00;10.40;21.70
2967;DHT22;1493;51.496;7.210;2023-04-25T07:33:27;10.60;99.90
2967;DHT22;1493;51.496;7.210;2023-04-25T07:35:54;10.40;99.90
2967;DHT22;1493;51.496;7.210;2023-04-25T07:38:21;10.50;1.00
2967;DHT22;1493;51.496;7.210;2023-04-25T07:40:49;10.80;99.90
2967;DHT22;1493;51.496;7.210;2023-04-25T07:43:16;11.10;1.00
2967;DHT22;1493;51.496;7.210;2023-04-25T07:45:43;11.20;99.90
2967;DHT22;1493;51.496;7.210;2023-04-25T07:48:10;11.30;1.00
2967;DHT22;1493;51.496;7.210;2023-04-25T07:50:37;11.40;90.70
2967;DHT22;1493;51.496;7.210;2023-04-25T07:53:04;11.40;95.80
2967;DHT22;1493;51.496;7.210;2023-04-25T07:55:31;11.10;99.90
2967;DHT22;1493;51.496;7.210;2023-04-25T07:58:00;11.10;99.90
2967;DHT22;1493;51.496;7.210;2023-04-25T08:00:27;11.40;99.90
2967;DHT22;1493;51.496;7.210;2023-04-25T08:02:53;11.90;99.90
2967;DHT22;1493;51.496;7.210;2023-04-25T08:05:20;12.20;99.90
2967;DHT22;1493;51.496;7.210;2023-04-25T08:07:47;12.50;1.00
2967;DHT22;1493;51.496;7.210;2023-04-25T08:10:14;12.80;1.00
2967;DHT22;1493;51.496;7.210;2023-04-25T08:12:41;12.90;1.00
2967;DHT22;1493;51.496;7.210;2023-04-25T08:15:10;13.10;1.00
2967;DHT22;1493;51.496;7.210;2023-04-25T08:17:37;12.80;1.00
2967;DHT22;1493;51.496;7.210;2023-04-25T08:20:04;12.60;1.00
2967;DHT22;1493;51.496;7.210;2023-04-25T08:22:31;12.80;1.00
2967;DHT22;1493;51.496;7.210;2023-04-25T08:24:59;13.00;1.00
2967;DHT22;1493;51.496;7.210;2023-04-25T08:27:26;13.50;1.00
2967;DHT22;1493;51.496;7.210;2023-04-25T08:29:53;13.60;1.00
2967;DHT22;1493;51.496;7.210;2023-04-25T08:32:21;13.40;1.00
2967;DHT22;1493;51.496;7.210;2023-04-25T08:34:48;12.80;1.00
2967;DHT22;1493;51.496;7.210;2023-04-25T08:37:14;12.90;1.00
2967;DHT22;1493;51.496;7.210;2023-04-25T08:39:41;12.70;1.00
2967;DHT22;1493;51.496;7.210;2023-04-25T08:42:08;12.80;1.00
2967;DHT22;1493;51.496;7.210;2023-04-25T08:44:36;12.70;1.00
2967;DHT22;1493;51.496;7.210;2023-04-25T08:47:04;12.60;1.00
2967;DHT22;1493;51.496;7.210;2023-04-25T08:49:33;12.90;1.00
2967;DHT22;1493;51.496;7.210;2023-04-25T08:52:01;12.90;1.00
2967;DHT22;1493;51.496;7.210;2023-04-25T08:54:31;13.70;1.00
2967;DHT22;1493;51.496;7.210;2023-04-25T08:57:01;14.60;1.00
2967;DHT22;1493;51.496;7.210;2023-04-25T08:59:30;16.50;1.00
2967;DHT22;1493;51.496;7.210;2023-04-25T09:01:57;17.50;1.00
2967;DHT22;1493;51.496;7.210;2023-04-25T09:04:24;18.80;1.00
2967;DHT22;1493;51.496;7.210;2023-04-25T09:06:52;18.80;99.90
2967;DHT22;1493;51.496;7.210;2023-04-25T09:09:19;18.40;99.90
2967;DHT22;1493;51.496;7.210;2023-04-25T09:11:46;17.00;99.90
2967;DHT22;1493;51.496;7.210;2023-04-25T09:14:15;17.40;99.90
2967;DHT22;1493;51.496;7.210;2023-04-25T09:17:01;17.60;99.90
2967;DHT22;1493;51.496;7.210;2023-04-25T09:19:29;18.30;99.90
2967;DHT22;1493;51.496;7.210;2023-04-25T09:21:59;17.40;99.90
2967;DHT22;1493;51.496;7.210;2023-04-25T09:26:57;15.50;99.90
2967;DHT22;1493;51.496;7.210;2023-04-25T09:29:29;14.50;99.90
2967;DHT22;1493;51.496;7.210;2023-04-25T09:32:11;14.20;99.90
2967;DHT22;1493;51.496;7.210;2023-04-25T09:34:39;13.90;99.90
2967;DHT22;1493;51.496;7.210;2023-04-25T09:37:10;13.80;99.90
2967;DHT22;1493;51.496;7.210;2023-04-25T09:39:37;13.80;99.90
2967;DHT22;1493;51.496;7.210;2023-04-25T09:42:04;13.70;99.90
2967;DHT22;1493;51.496;7.210;2023-04-25T09:44:32;13.50;99.90
2967;DHT22;1493;51.496;7.210;2023-04-25T09:46:59;12.70;99.90
2967;DHT22;1493;51.496;7.210;2023-04-25T09:49:26;12.70;99.90
2967;DHT22;1493;51.496;7.210;2023-04-25T09:51:56;12.90;99.90
2967;DHT22;1493;51.496;7.210;2023-04-25T09:54:25;12.70;99.90
2967;DHT22;1493;51.496;7.210;2023-04-25T09:56:53;13.50;99.90
2967;DHT22;1493;51.496;7.210;2023-04-25T09:59:21;15.10;99.90
2967;DHT22;1493;51.496;7.210;2023-04-25T10:01:48;17.30;99.90
2967;DHT22;1493;51.496;7.210;2023-04-25T10:04:19;19.30;99.90
2967;DHT22;1493;51.496;7.210;2023-04-25T10:06:49;20.60;99.90
2967;DHT22;1493;51.496;7.210;2023-04-25T10:09:20;20.90;99.90
2967;DHT22;1493;51.496;7.210;2023-04-25T10:11:50;20.50;99.90
2967;DHT22;1493;51.496;7.210;2023-04-25T10:14:18;21.70;99.90
2967;DHT22;1493;51.496;7.210;2023-04-25T10:16:47;21.90;99.90
2967;DHT22;1493;51.496;7.210;2023-04-25T10:19:15;21.40;99.90
2967;DHT22;1493;51.496;7.210;2023-04-25T10:21:48;20.30;99.90
2967;DHT22;1493;51.496;7.210;2023-04-25T10:24:16;20.60;99.90
2967;DHT22;1493;51.496;7.210;2023-04-25T10:26:43;19.70;99.90
2967;DHT22;1493;51.496;7.210;2023-04-25T10:29:12;18.70;99.90
2967;DHT22;1493;51.496;7.210;2023-04-25T10:31:45;17.60;99.90
2967;DHT22;1493;51.496;7.210;2023-04-25T10:34:12;16.60;99.90
2967;DHT22;1493;51.496;7.210;2023-04-25T10:36:39;15.40;99.90
2967;DHT22;1493;51.496;7.210;2023-04-25T10:39:07;14.70;99.90
2967;DHT22;1493;51.496;7.210;2023-04-25T10:41:46;14.30;99.90
2967;DHT22;1493;51.496;7.210;2023-04-25T10:44:14;13.60;99.90
2967;DHT22;1493;51.496;7.210;2023-04-25T10:46:44;13.20;99.90
2967;DHT22;1493;51.496;7.210;2023-04-25T10:49:28;13.40;99.90
2967;DHT22;1493;51.496;7.210;2023-04-25T10:52:14;13.40;99.90
2967;DHT22;1493;51.496;7.210;2023-04-25T10:54:42;13.30;99.90
2967;DHT22;1493;51.496;7.210;2023-04-25T10:57:26;12.90;99.90
2967;DHT22;1493;51.496;7.210;2023-04-25T10:59:54;12.60;99.90
2967;DHT22;1493;51.496;7.210;2023-04-25T11:02:26;12.10;99.90
2967;DHT22;1493;51.496;7.210;2023-04-25T11:04:53;11.80;99.90
2967;DHT22;1493;51.496;7.210;2023-04-25T11:07:26;11.60;99.90
2967;DHT22;1493;51.496;7.210;2023-04-25T11:09:55;11.10;99.90
2967;DHT22;1493;51.496;7.210;2023-04-25T11:12:24;11.00;1.00
2967;DHT22;1493;51.496;7.210;2023-04-25T11:15:00;11.00;1.00
2967;DHT22;1493;51.496;7.210;2023-04-25T11:17:28;11.00;1.00
2967;DHT22;1493;51.496;7.210;2023-04-25T11:19:55;11.00;1.00
2967;DHT22;1493;51.496;7.210;2023-04-25T11:22:22;11.00;1.00
2967;DHT22;1493;51.496;7.210;2023-04-25T11:24:49;11.10;1.00
2967;DHT22;1493;51.496;7.210;2023-04-25T11:27:17;10.90;1.00
2967;DHT22;1493;51.496;7.210;2023-04-25T11:29:44;10.80;1.00
2967;DHT22;1493;51.496;7.210;2023-04-25T11:32:15;11.00;1.00
2967;DHT22;1493;51.496;7.210;2023-04-25T11:34:44;11.30;1.00
2967;DHT22;1493;51.496;7.210;2023-04-25T11:37:11;11.70;1.00
2967;DHT22;1493;51.496;7.210;2023-04-25T11:39:42;12.20;1.00
2967;DHT22;1493;51.496;7.210;2023-04-25T11:42:10;12.80;1.00
2967;DHT22;1493;51.496;7.210;2023-04-25T11:44:38;13.70;1.00
2967;DHT22;1493;51.496;7.210;2023-04-25T11:47:05;14.10;1.00
2967;DHT22;1493;51.496;7.210;2023-04-25T11:49:33;15.70;1.00
2967;DHT22;1493;51.496;7.210;2023-04-25T11:52:01;18.40;1.00
2967;DHT22;1493;51.496;7.210;2023-04-25T11:54:28;20.70;99.90
2967;DHT22;1493;51.496;7.210;2023-04-25T11:56:55;23.10;99.90
2967;DHT22;1493;51.496;7.210;2023-04-25T11:59:23;24.30;99.90
2967;DHT22;1493;51.496;7.210;2023-04-25T12:01:51;25.60;99.90
2967;DHT22;1493;51.496;7.210;2023-04-25T12:04:21;26.60;99.90
2967;DHT22;1493;51.496;7.210;2023-04-25T12:06:50;26.80;99.90
2967;DHT22;1493;51.496;7.210;2023-04-25T12:09:18;28.50;99.90
2967;DHT22;1493;51.496;7.210;2023-04-25T12:11:47;29.30;99.90
2967;DHT22;1493;51.496;7.210;2023-04-25T12:14:21;29.90;99.90
2967;DHT22;1493;51.496;7.210;2023-04-25T12:16:50;30.80;99.90
2967;DHT22;1493;51.496;7.210;2023-04-25T12:19:18;31.10;99.90
2967;DHT22;1493;51.496;7.210;2023-04-25T12:21:45;30.70;99.90
2967;DHT22;1493;51.496;7.210;2023-04-25T12:24:17;30.50;99.90
2967;DHT22;1493;51.496;7.210;2023-04-25T12:26:49;27.40;99.90
2967;DHT22;1493;51.496;7.210;2023-04-25T12:29:18;26.00;99.90
2967;DHT22;1493;51.496;7.210;2023-04-25T12:31:45;24.00;99.90
2967;DHT22;1493;51.496;7.210;2023-04-25T12:34:12;24.30;99.90
2967;DHT22;1493;51.496;7.210;2023-04-25T12:36:38;24.10;99.90
2967;DHT22;1493;51.496;7.210;2023-04-25T12:39:05;24.60;99.90
2967;DHT22;1493;51.496;7.210;2023-04-25T12:41:34;23.90;99.90
2967;DHT22;1493;51.496;7.210;2023-04-25T12:44:01;21.70;99.90
2967;DHT22;1493;51.496;7.210;2023-04-25T12:46:28;19.80;99.90
2967;DHT22;1493;51.496;7.210;2023-04-25T12:48:55;18.70;99.90
2967;DHT22;1493;51.496;7.210;2023-04-25T12:51:22;18.00;99.90
2967;DHT22;1493;51.496;7.210;2023-04-25T12:53:50;16.90;99.90
2967;DHT22;1493;51.496;7.210;2023-04-25T12:56:18;16.00;99.90
2967;DHT22;1493;51.496;7.210;2023-04-25T12:58:46;15.40;99.90
2967;DHT22;1493;51.496;7.210;2023-04-25T13:01:13;14.40;99.90
2967;DHT22;1493;51.496;7.210;2023-04-25T13:03:40;13.30;99.90
2967;DHT22;1493;51.496;7.210;2023-04-25T13:06:07;13.10;99.90
2967;DHT22;1493;51.496;7.210;2023-04-25T13:08:34;12.80;99.90
2967;DHT22;1493;51.496;7.210;2023-04-25T13:11:02;12.60;99.90
2967;DHT22;1493;51.496;7.210;2023-04-25T13:13:30;12.50;99.90
2967;DHT22;1493;51.496;7.210;2023-04-25T13:15:58;12.40;99.90
2967;DHT22;1493;51.496;7.210;2023-04-25T13:18:25;12.30;99.90
2967;DHT22;1493;51.496;7.210;2023-04-25T13:20:52;12.40;99.90
2967;DHT22;1493;51.496;7.210;2023-04-25T13:23:19;12.70;99.90
2967;DHT22;1493;51.496;7.210;2023-04-25T13:25:47;12.90;99.90
2967;DHT22;1493;51.496;7.210;2023-04-25T13:28:14;13.50;99.90
2967;DHT22;1493;51.496;7.210;2023-04-25T13:30:41;13.50;99.90
2967;DHT22;1493;51.496;7.210;2023-04-25T13:33:10;13.50;99.90
2967;DHT22;1493;51.496;7.210;2023-04-25T13:35:37;13.40;99.90
2967;DHT22;1493;51.496;7.210;2023-04-25T13:38:04;13.20;99.90
2967;DHT22;1493;51.496;7.210;2023-04-25T13:40:31;12.80;99.90
2967;DHT22;1493;51.496;7.210;2023-04-25T13:42:58;12.80;99.90
2967;DHT22;1493;51.496;7.210;2023-04-25T13:45:25;12.80;99.90
2967;DHT22;1493;51.496;7.210;2023-04-25T13:47:52;12.60;99.90
2967;DHT22;1493;51.496;7.210;2023-04-25T13:50:20;13.30;99.90
2967;DHT22;1493;51.496;7.210;2023-04-25T13:52:47;14.70;99.90
2967;DHT22;1493;51.496;7.210;2023-04-25T13:55:14;15.40;99.90
2967;DHT22;1493;51.496;7.210;2023-04-25T13:57:41;16.60;99.90
2967;DHT22;1493;51.496;7.210;2023-04-25T14:00:10;18.20;99.90
2967;DHT22;1493;51.496;7.210;2023-04-25T14:02:37;20.00;99.90
2967;DHT22;1493;51.496;7.210;2023-04-25T14:05:05;21.70;99.90
2967;DHT22;1493;51.496;7.210;2023-04-25T14:07:33;24.60;99.90
2967;DHT22;1493;51.496;7.210;2023-04-25T14:10:01;26.20;99.90
2967;DHT22;1493;51.496;7.210;2023-04-25T14:12:29;26.70;99.90
2967;DHT22;1493;51.496;7.210;2023-04-25T14:14:56;27.70;99.90
2967;DHT22;1493;51.496;7.210;2023-04-25T14:17:23;28.90;99.90
2967;DHT22;1493;51.496;7.210;2023-04-25T14:19:50;29.50;99.90
2967;DHT22;1493;51.496;7.210;2023-04-25T14:22:16;29.50;99.90
2967;DHT22;1493;51.496;7.210;2023-04-25T14:24:45;30.40;99.90
2967;DHT22;1493;51.496;7.210;2023-04-25T14:27:12;30.70;99.90
2967;DHT22;1493;51.496;7.210;2023-04-25T14:29:39;30.10;99.90
2967;DHT22;1493;51.496;7.210;2023-04-25T14:32:06;30.40;99.90
2967;DHT22;1493;51.496;7.210;2023-04-25T14:34:34;28.70;99.90
2967;DHT22;1493;51.496;7.210;2023-04-25T14:37:01;26.20;99.90
2967;DHT22;1493;51.496;7.210;2023-04-25T14:39:27;23.60;99.90
2967;DHT22;1493;51.496;7.210;2023-04-25T14:41:55;21.60;99.90
2967;DHT22;1493;51.496;7.210;2023-04-25T14:44:23;20.10;99.90
2967;DHT22;1493;51.496;7.210;2023-04-25T14:46:50;17.90;99.90
2967;DHT22;1493;51.496;7.210;2023-04-25T14:49:17;17.40;99.90
2967;DHT22;1493;51.496;7.210;2023-04-25T14:51:44;18.70;99.90
2967;DHT22;1493;51.496;7.210;2023-04-25T14:54:11;19.20;99.90
2967;DHT22;1493;51.496;7.210;2023-04-25T14:56:38;19.20;99.90
2967;DHT22;1493;51.496;7.210;2023-04-25T14:59:06;17.90;99.90
2967;DHT22;1493;51.496;7.210;2023-04-25T15:01:33;17.60;99.90
2967;DHT22;1493;51.496;7.210;2023-04-25T15:04:00;16.80;99.90
2967;DHT22;1493;51.496;7.210;2023-04-25T15:06:27;15.30;99.90
2967;DHT22;1493;51.496;7.210;2023-04-25T15:08:55;14.60;99.90
2967;DHT22;1493;51.496;7.210;2023-04-25T15:11:23;14.10;99.90
2967;DHT22;1493;51.496;7.210;2023-04-25T15:13:49;14.10;99.90
2967;DHT22;1493;51.496;7.210;2023-04-25T15:16:18;14.10;99.90
2967;DHT22;1493;51.496;7.210;2023-04-25T15:18:45;14.70;99.90
2967;DHT22;1493;51.496;7.210;2023-04-25T15:21:11;15.90;99.90
2967;DHT22;1493;51.496;7.210;2023-04-25T15:23:38;16.60;99.90
2967;DHT22;1493;51.496;7.210;2023-04-25T15:26:05;16.30;99.90
2967;DHT22;1493;51.496;7.210;2023-04-25T15:28:32;16.30;99.90
2967;DHT22;1493;51.496;7.210;2023-04-25T15:31:00;16.40;99.90
2967;DHT22;1493;51.496;7.210;2023-04-25T15:33:28;17.70;99.90
2967;DHT22;1493;51.496;7.210;2023-04-25T15:35:55;19.50;99.90
2967;DHT22;1493;51.496;7.210;2023-04-25T15:38:23;20.40;99.90
2967;DHT22;1493;51.496;7.210;2023-04-25T15:40:51;21.80;99.90
2967;DHT22;1493;51.496;7.210;2023-04-25T15:43:18;22.50;99.90
2967;DHT22;1493;51.496;7.210;2023-04-25T15:45:45;23.10;99.90
2967;DHT22;1493;51.496;7.210;2023-04-25T15:48:11;23.40;99.90
2967;DHT22;1493;51.496;7.210;2023-04-25T15:50:40;22.40;99.90
2967;DHT22;1493;51.496;7.210;2023-04-25T15:53:07;20.60;99.90
2967;DHT22;1493;51.496;7.210;2023-04-25T15:55:34;20.10;99.90
2967;DHT22;1493;51.496;7.210;2023-04-25T15:58:01;19.10;99.90
2967;DHT22;1493;51.496;7.210;2023-04-25T16:00:28;17.80;99.90
2967;DHT22;1493;51.496;7.210;2023-04-25T16:02:55;16.70;99.90
2967;DHT22;1493;51.496;7.210;2023-04-25T16:05:22;15.70;99.90
2967;DHT22;1493;51.496;7.210;2023-04-25T16:07:51;15.20;99.90
2967;DHT22;1493;51.496;7.210;2023-04-25T16:10:19;14.50;99.90
2967;DHT22;1493;51.496;7.210;2023-04-25T16:12:46;13.90;99.90
2967;DHT22;1493;51.496;7.210;2023-04-25T16:15:14;13.60;99.90
2967;DHT22;1493;51.496;7.210;2023-04-25T16:17:41;13.20;99.90